Time;durP1;ratioP1;P1;durP2;ratioP2;P2;SDS_P1;SDS_P2;PMS_P1;PMS_P2;Temp;Humidity;BMP_temperature;BMP_pressure;BME280_temperature;BME280_humidity;BME280_pressure;Samples;Min_cycle;Max_cycle;Signal;HPM_P1;HPM_P2
2020/12/07 00:01:06;;;;;;;48.90;42.03;;;;;;;;;;5035682;28;20490;-62
2020/12/07 00:03:33;;;;;;;48.73;41.20;;;;;;;;;;5035194;28;20463;-61
2020/12/07 00:06:00;;;;;;;48.13;41.70;;;;;;;;;;5035643;28;20455;-61
2020/12/07 00:08:27;;;;;;;47.10;40.30;;;;;;;;;;5035429;28;20453;-63
2020/12/07 00:10:54;;;;;;;48.70;39.60;;;;;;;;;;5035432;28;20461;-61
2020/12/07 00:13:20;;;;;;;48.53;42.07;;;;;;;;;;5035180;28;20467;-62
2020/12/07 00:15:47;;;;;;;46.73;41.67;;;;;;;;;;5039147;28;20458;-62
2020/12/07 00:18:14;;;;;;;46.67;40.77;;;;;;;;;;5042441;28;20452;-62
2020/12/07 00:20:41;;;;;;;47.00;39.07;;;;;;;;;;5035077;28;20495;-61
2020/12/07 00:23:10;;;;;;;48.70;41.67;;;;;;;;;;5046923;28;20447;-61
2020/12/07 00:25:37;;;;;;;45.27;39.60;;;;;;;;;;5050423;28;20457;-63
2020/12/07 00:28:03;;;;;;;48.00;40.87;;;;;;;;;;5035601;28;20448;-61
2020/12/07 00:30:30;;;;;;;50.13;40.17;;;;;;;;;;5037782;28;20472;-61
2020/12/07 00:32:56;;;;;;;47.60;41.70;;;;;;;;;;5035063;28;20963;-61
2020/12/07 00:35:23;;;;;;;45.83;40.80;;;;;;;;;;5036050;28;20461;-62
2020/12/07 00:37:50;;;;;;;48.17;39.67;;;;;;;;;;5035245;28;20953;-61
2020/12/07 00:40:17;;;;;;;45.17;39.80;;;;;;;;;;5035016;28;20494;-63
2020/12/07 00:42:44;;;;;;;46.00;39.30;;;;;;;;;;5034904;28;20459;-61
2020/12/07 00:45:10;;;;;;;48.57;40.43;;;;;;;;;;5034740;28;20457;-62
2020/12/07 00:47:37;;;;;;;43.40;37.80;;;;;;;;;;5033970;28;20456;-61
2020/12/07 00:50:04;;;;;;;41.40;36.83;;;;;;;;;;5034593;28;20486;-62
2020/12/07 00:52:30;;;;;;;45.80;37.53;;;;;;;;;;5032862;28;20461;-61
2020/12/07 00:54:58;;;;;;;46.40;38.13;;;;;;;;;;5034134;28;20464;-62
2020/12/07 00:57:24;;;;;;;50.30;40.93;;;;;;;;;;5034594;28;20459;-61
2020/12/07 00:59:51;;;;;;;44.53;36.90;;;;;;;;;;5033711;28;20499;-61
2020/12/07 01:02:17;;;;;;;47.40;39.40;;;;;;;;;;5032954;28;20453;-61
2020/12/07 01:04:44;;;;;;;45.17;40.17;;;;;;;;;;5032785;28;20452;-61
2020/12/07 01:07:11;;;;;;;46.50;40.00;;;;;;;;;;5034356;28;20464;-62
2020/12/07 01:09:37;;;;;;;43.63;37.97;;;;;;;;;;5034119;28;20465;-61
2020/12/07 01:12:05;;;;;;;46.10;39.13;;;;;;;;;;5034196;28;20487;-62
2020/12/07 01:14:31;;;;;;;45.20;36.83;;;;;;;;;;5034250;28;20861;-60
2020/12/07 01:16:59;;;;;;;42.53;36.40;;;;;;;;;;5034620;28;20453;-62
2020/12/07 01:19:25;;;;;;;42.17;37.17;;;;;;;;;;5054008;28;20552;-61
2020/12/07 01:21:52;;;;;;;40.20;35.90;;;;;;;;;;5043027;28;20460;-62
2020/12/07 01:24:19;;;;;;;40.93;35.83;;;;;;;;;;5034148;28;20455;-61
2020/12/07 01:26:45;;;;;;;46.67;37.60;;;;;;;;;;5033655;28;20824;-60
2020/12/07 01:29:13;;;;;;;40.60;35.20;;;;;;;;;;5033973;28;20453;-60
2020/12/07 01:31:39;;;;;;;42.60;36.50;;;;;;;;;;5033553;28;20452;-61
2020/12/07 01:34:06;;;;;;;41.00;34.03;;;;;;;;;;5033709;28;20543;-61
2020/12/07 01:36:32;;;;;;;38.77;34.67;;;;;;;;;;5034186;28;20451;-62
2020/12/07 01:38:59;;;;;;;37.83;34.13;;;;;;;;;;5033584;28;20456;-61
2020/12/07 01:41:26;;;;;;;42.60;36.73;;;;;;;;;;5033722;28;20453;-61
2020/12/07 01:43:52;;;;;;;38.80;34.60;;;;;;;;;;5033676;28;20973;-61
2020/12/07 01:46:22;;;;;;;41.90;33.53;;;;;;;;;;5033691;28;20448;-61
2020/12/07 01:48:49;;;;;;;38.33;34.23;;;;;;;;;;5033947;28;20456;-62
2020/12/07 01:51:16;;;;;;;37.03;31.87;;;;;;;;;;5033465;28;20991;-61
2020/12/07 01:53:42;;;;;;;37.50;33.43;;;;;;;;;;5032821;28;20456;-60
2020/12/07 01:56:11;;;;;;;39.37;31.93;;;;;;;;;;5033684;28;20448;-61
2020/12/07 01:58:38;;;;;;;39.53;34.40;;;;;;;;;;5033281;28;20960;-60
2020/12/07 02:01:05;;;;;;;36.20;32.30;;;;;;;;;;5033325;28;20493;-61
2020/12/07 02:03:32;;;;;;;38.37;32.80;;;;;;;;;;5032420;28;20948;-61
2020/12/07 02:05:59;;;;;;;36.50;32.33;;;;;;;;;;5033309;28;20445;-61
2020/12/07 02:08:25;;;;;;;36.13;32.37;;;;;;;;;;5033036;28;20459;-61
2020/12/07 02:10:52;;;;;;;38.10;32.13;;;;;;;;;;5032935;28;20471;-60
2020/12/07 02:13:19;;;;;;;34.53;30.83;;;;;;;;;;5032781;28;20457;-61
2020/12/07 02:15:45;;;;;;;36.40;32.17;;;;;;;;;;5032525;28;20456;-62
2020/12/07 02:18:12;;;;;;;35.47;31.80;;;;;;;;;;5033435;28;20964;-61
2020/12/07 02:20:39;;;;;;;37.47;31.13;;;;;;;;;;5032898;28;20489;-61
2020/12/07 02:23:06;;;;;;;31.57;28.03;;;;;;;;;;5032861;28;20453;-61
2020/12/07 02:25:32;;;;;;;36.87;31.80;;;;;;;;;;5033721;28;20448;-61
2020/12/07 02:27:59;;;;;;;34.23;30.53;;;;;;;;;;5032373;28;20459;-61
2020/12/07 02:30:26;;;;;;;35.00;30.83;;;;;;;;;;5032251;28;20850;-62
2020/12/07 02:32:52;;;;;;;32.87;28.37;;;;;;;;;;5032961;28;20460;-61
2020/12/07 02:35:19;;;;;;;32.60;29.30;;;;;;;;;;5032099;28;20932;-61
2020/12/07 02:37:48;;;;;;;33.50;29.57;;;;;;;;;;5032600;28;20452;-62
2020/12/07 02:40:15;;;;;;;34.73;30.93;;;;;;;;;;5032547;28;20515;-60
2020/12/07 02:42:42;;;;;;;32.97;29.57;;;;;;;;;;5032290;28;20461;-62
2020/12/07 02:45:11;;;;;;;32.13;28.83;;;;;;;;;;5032246;28;20445;-60
2020/12/07 02:47:37;;;;;;;32.30;28.83;;;;;;;;;;5033300;28;20456;-61
2020/12/07 02:50:05;;;;;;;31.17;27.77;;;;;;;;;;5032190;28;20535;-60
2020/12/07 02:52:32;;;;;;;31.37;28.13;;;;;;;;;;5032145;28;20510;-60
2020/12/07 02:55:00;;;;;;;31.23;27.90;;;;;;;;;;5032028;28;20445;-61
2020/12/07 02:57:26;;;;;;;30.13;27.03;;;;;;;;;;5032197;28;20510;-62
2020/12/07 02:59:54;;;;;;;30.40;27.30;;;;;;;;;;5032287;28;20492;-61
2020/12/07 03:02:20;;;;;;;29.83;26.60;;;;;;;;;;5039070;28;20463;-62
2020/12/07 03:04:47;;;;;;;31.90;27.70;;;;;;;;;;5037708;28;20453;-61
2020/12/07 03:07:14;;;;;;;30.20;27.10;;;;;;;;;;5031831;28;20449;-61
2020/12/07 03:09:41;;;;;;;29.60;26.50;;;;;;;;;;5032129;28;20466;-63
2020/12/07 03:12:08;;;;;;;30.47;27.27;;;;;;;;;;5032142;28;20452;-61
2020/12/07 03:14:35;;;;;;;33.20;28.23;;;;;;;;;;5031815;28;20445;-61
2020/12/07 03:17:02;;;;;;;27.87;25.17;;;;;;;;;;5031557;28;20460;-60
2020/12/07 03:19:28;;;;;;;29.30;26.30;;;;;;;;;;5031924;28;20484;-60
2020/12/07 03:21:55;;;;;;;28.10;25.40;;;;;;;;;;5031488;28;20828;-61
2020/12/07 03:24:22;;;;;;;26.93;24.43;;;;;;;;;;5031632;28;20444;-60
2020/12/07 03:26:49;;;;;;;28.13;25.23;;;;;;;;;;5031874;28;20506;-61
2020/12/07 03:29:16;;;;;;;26.50;23.90;;;;;;;;;;5031308;28;20484;-62
2020/12/07 03:31:43;;;;;;;28.20;25.27;;;;;;;;;;5033727;28;20850;-61
2020/12/07 03:34:10;;;;;;;28.33;25.27;;;;;;;;;;5051479;28;20447;-61
2020/12/07 03:36:37;;;;;;;27.97;25.20;;;;;;;;;;5050011;28;20977;-61
2020/12/07 03:39:04;;;;;;;26.77;24.23;;;;;;;;;;5049470;28;20963;-61
2020/12/07 03:41:30;;;;;;;27.77;24.97;;;;;;;;;;5041252;28;20458;-61
2020/12/07 03:43:57;;;;;;;27.40;24.60;;;;;;;;;;5051269;28;20841;-62
2020/12/07 03:46:25;;;;;;;26.13;23.37;;;;;;;;;;5042226;28;20449;-61
2020/12/07 03:48:51;;;;;;;26.90;24.30;;;;;;;;;;5031969;28;20457;-62
2020/12/07 03:51:18;;;;;;;25.97;23.47;;;;;;;;;;5030981;28;20847;-61
2020/12/07 03:53:45;;;;;;;26.90;24.20;;;;;;;;;;5031645;28;20924;-60
2020/12/07 03:56:11;;;;;;;27.03;24.27;;;;;;;;;;5031296;28;20826;-62
2020/12/07 03:58:38;;;;;;;26.77;24.23;;;;;;;;;;5031391;28;20452;-62
2020/12/07 04:01:06;;;;;;;27.73;25.03;;;;;;;;;;5031337;28;20493;-60
2020/12/07 04:03:34;;;;;;;27.87;25.27;;;;;;;;;;5041689;28;20460;-61
2020/12/07 04:06:05;;;;;;;29.67;27.07;;;;;;;;;;5036600;28;20493;-61
2020/12/07 04:08:31;;;;;;;32.03;29.03;;;;;;;;;;5031778;28;20453;-61
2020/12/07 04:10:58;;;;;;;30.20;27.60;;;;;;;;;;5032078;28;20468;-62
2020/12/07 04:13:25;;;;;;;30.77;28.00;;;;;;;;;;5032259;28;20444;-62
2020/12/07 04:15:51;;;;;;;29.87;27.17;;;;;;;;;;5031578;28;20455;-62
2020/12/07 04:18:18;;;;;;;31.70;28.40;;;;;;;;;;5031783;28;20460;-63
2020/12/07 04:20:45;;;;;;;30.13;27.40;;;;;;;;;;5031301;28;20485;-62
2020/12/07 04:23:12;;;;;;;29.97;27.10;;;;;;;;;;5031765;28;20467;-61
2020/12/07 04:25:38;;;;;;;30.23;27.37;;;;;;;;;;5031244;28;20453;-62
2020/12/07 04:28:05;;;;;;;30.07;27.37;;;;;;;;;;5033695;28;20456;-63
2020/12/07 04:30:32;;;;;;;29.53;26.93;;;;;;;;;;5018778;28;20839;-62
2020/12/07 04:32:58;;;;;;;29.70;27.17;;;;;;;;;;5041510;28;20465;-63
2020/12/07 04:35:25;;;;;;;29.00;26.40;;;;;;;;;;5050802;28;20460;-63
2020/12/07 04:37:52;;;;;;;29.27;26.77;;;;;;;;;;5035387;28;20444;-62
2020/12/07 04:40:19;;;;;;;28.40;25.80;;;;;;;;;;5075660;22;20503;-67
2020/12/07 04:42:46;;;;;;;27.87;25.37;;;;;;;;;;5074365;28;20799;-67
2020/12/07 04:45:12;;;;;;;29.27;26.67;;;;;;;;;;5059529;28;20446;-67
2020/12/07 04:47:39;;;;;;;28.53;26.07;;;;;;;;;;5074042;28;20451;-67
2020/12/07 04:50:07;;;;;;;29.13;26.53;;;;;;;;;;5074516;28;20455;-67
2020/12/07 04:52:33;;;;;;;27.43;25.03;;;;;;;;;;5074008;28;20454;-68
2020/12/07 04:55:03;;;;;;;27.70;25.33;;;;;;;;;;5073800;28;20439;-67
2020/12/07 04:57:30;;;;;;;27.23;24.73;;;;;;;;;;5074136;28;20446;-67
2020/12/07 04:59:58;;;;;;;27.80;25.30;;;;;;;;;;5074409;28;20549;-68
2020/12/07 05:02:25;;;;;;;26.87;24.40;;;;;;;;;;5073078;28;20451;-67
2020/12/07 05:04:52;;;;;;;26.77;24.37;;;;;;;;;;5073285;28;20508;-67
2020/12/07 05:07:18;;;;;;;27.77;25.23;;;;;;;;;;5073416;28;20832;-68
2020/12/07 05:09:45;;;;;;;27.30;24.83;;;;;;;;;;5074076;28;20469;-68
2020/12/07 05:12:17;;;;;;;25.37;23.23;;;;;;;;;;5073795;28;20458;-67
2020/12/07 05:14:44;;;;;;;26.40;24.10;;;;;;;;;;5073437;28;20451;-68
2020/12/07 05:17:10;;;;;;;25.50;23.10;;;;;;;;;;5056871;28;20891;-67
2020/12/07 05:19:37;;;;;;;24.77;22.57;;;;;;;;;;5055370;28;20513;-67
2020/12/07 05:22:13;;;;;;;25.80;23.50;;;;;;;;;;5073884;28;20438;-68
2020/12/07 05:24:40;;;;;;;25.00;22.80;;;;;;;;;;5073317;28;20449;-67
2020/12/07 05:27:08;;;;;;;24.43;22.43;;;;;;;;;;5073581;28;20450;-68
2020/12/07 05:29:44;;;;;;;24.53;22.33;;;;;;;;;;5072850;28;20477;-68
2020/12/07 05:32:10;;;;;;;24.87;22.57;;;;;;;;;;5071539;28;20504;-67
2020/12/07 05:34:39;;;;;;;23.53;21.53;;;;;;;;;;5073224;28;20487;-68
2020/12/07 05:37:05;;;;;;;23.53;21.53;;;;;;;;;;5073614;28;20443;-68
2020/12/07 05:39:33;;;;;;;22.27;20.37;;;;;;;;;;5071627;28;20479;-68
2020/12/07 05:42:01;;;;;;;23.93;22.00;;;;;;;;;;5073672;28;20439;-67
2020/12/07 05:44:27;;;;;;;23.03;20.83;;;;;;;;;;5073142;28;20469;-68
2020/12/07 05:46:56;;;;;;;23.73;21.63;;;;;;;;;;5069478;28;20443;-69
2020/12/07 05:49:23;;;;;;;23.10;21.20;;;;;;;;;;5072925;28;20528;-68
2020/12/07 05:51:53;;;;;;;23.47;21.37;;;;;;;;;;5072409;28;20453;-68
2020/12/07 05:54:21;;;;;;;22.87;20.87;;;;;;;;;;5072659;28;20497;-68
2020/12/07 05:56:49;;;;;;;22.93;20.90;;;;;;;;;;5073470;28;20477;-68
2020/12/07 05:59:20;;;;;;;22.37;20.30;;;;;;;;;;5072803;28;20482;-67
2020/12/07 06:01:48;;;;;;;23.50;21.40;;;;;;;;;;5062707;28;20455;-68
2020/12/07 06:04:15;;;;;;;23.20;21.00;;;;;;;;;;5065445;28;20453;-67
2020/12/07 06:06:43;;;;;;;22.77;20.97;;;;;;;;;;5072833;28;20442;-68
2020/12/07 06:09:12;;;;;;;21.43;19.50;;;;;;;;;;5072547;28;20471;-68
2020/12/07 06:11:41;;;;;;;22.43;20.40;;;;;;;;;;5073060;28;20435;-68
2020/12/07 06:14:08;;;;;;;20.90;19.10;;;;;;;;;;5072248;28;20451;-68
2020/12/07 06:16:36;;;;;;;21.30;19.40;;;;;;;;;;5072050;28;20458;-68
2020/12/07 06:19:12;;;;;;;20.80;19.00;;;;;;;;;;5070451;28;20471;-68
2020/12/07 06:21:45;;;;;;;21.63;19.60;;;;;;;;;;5072919;28;20492;-67
2020/12/07 06:24:12;;;;;;;20.63;18.73;;;;;;;;;;5071848;28;20461;-67
2020/12/07 06:26:38;;;;;;;20.87;18.87;;;;;;;;;;5072615;28;20447;-68
2020/12/07 06:29:06;;;;;;;20.57;18.73;;;;;;;;;;5071577;28;20474;-68
2020/12/07 06:31:37;;;;;;;21.70;19.80;;;;;;;;;;5052676;28;20444;-67
2020/12/07 06:34:10;;;;;;;20.60;18.80;;;;;;;;;;5057703;28;20945;-68
2020/12/07 06:36:38;;;;;;;22.10;20.10;;;;;;;;;;5070718;28;20462;-67
2020/12/07 06:39:07;;;;;;;21.83;19.93;;;;;;;;;;5071566;28;20993;-68
2020/12/07 06:41:34;;;;;;;21.23;19.43;;;;;;;;;;5072086;28;20525;-68
2020/12/07 06:44:02;;;;;;;20.80;19.00;;;;;;;;;;5072005;28;20454;-68
2020/12/07 06:46:48;;;;;;;20.13;18.30;;;;;;;;;;5071897;28;20451;-68
2020/12/07 06:49:15;;;;;;;21.60;19.80;;;;;;;;;;5071164;28;21007;-68
2020/12/07 06:51:44;;;;;;;21.03;19.13;;;;;;;;;;5071771;28;20447;-67
2020/12/07 06:57:19;;;;;;;19.57;17.87;;;;;;;;;;5071149;28;20962;-67
2020/12/07 06:59:53;;;;;;;21.10;19.20;;;;;;;;;;5071752;28;21006;-67
2020/12/07 07:02:19;;;;;;;21.90;19.90;;;;;;;;;;5072034;28;20938;-69
2020/12/07 07:04:51;;;;;;;20.87;18.80;;;;;;;;;;5071568;28;20451;-67
2020/12/07 07:07:19;;;;;;;21.50;19.40;;;;;;;;;;5071481;28;20807;-68
2020/12/07 07:09:46;;;;;;;22.00;19.90;;;;;;;;;;5068371;28;20517;-67
2020/12/07 07:12:13;;;;;;;20.60;18.60;;;;;;;;;;5071333;28;20465;-67
2020/12/07 07:14:40;;;;;;;19.10;17.20;;;;;;;;;;5071537;28;20451;-67
2020/12/07 07:17:07;;;;;;;21.13;19.23;;;;;;;;;;5071895;28;20451;-67
2020/12/07 07:19:33;;;;;;;21.43;19.43;;;;;;;;;;5071140;28;20471;-67
2020/12/07 07:22:00;;;;;;;21.37;19.57;;;;;;;;;;5071291;28;20509;-68
2020/12/07 07:24:30;;;;;;;20.80;18.90;;;;;;;;;;5071132;28;20457;-67
2020/12/07 07:27:06;;;;;;;19.83;18.10;;;;;;;;;;5061634;28;20976;-67
2020/12/07 07:29:33;;;;;;;20.97;18.87;;;;;;;;;;5070708;28;20485;-67
2020/12/07 07:32:00;;;;;;;22.77;20.53;;;;;;;;;;5071218;28;20446;-67
2020/12/07 07:34:26;;;;;;;21.00;19.10;;;;;;;;;;5071090;28;20547;-67
2020/12/07 07:36:53;;;;;;;21.33;19.30;;;;;;;;;;5071703;28;20457;-67
2020/12/07 07:39:20;;;;;;;21.47;19.47;;;;;;;;;;5071384;28;20481;-67
2020/12/07 07:41:47;;;;;;;21.83;19.83;;;;;;;;;;5070926;28;20470;-68
2020/12/07 07:44:16;;;;;;;21.40;19.50;;;;;;;;;;5068748;28;20461;-67
2020/12/07 07:46:45;;;;;;;21.00;19.10;;;;;;;;;;5065306;28;20458;-68
2020/12/07 07:49:22;;;;;;;21.87;19.70;;;;;;;;;;5070889;28;20471;-67
2020/12/07 07:52:37;;;;;;;20.20;18.33;;;;;;;;;;5051855;28;20845;-67
2020/12/07 08:07:12;;;;;;;22.47;20.27;;;;;;;;;;5043694;28;20448;-68
2020/12/07 08:15:27;;;;;;;22.10;19.90;;;;;;;;;;5074479;28;20463;-68
2020/12/07 08:17:55;;;;;;;21.83;19.83;;;;;;;;;;5074062;28;20458;-68
2020/12/07 08:20:25;;;;;;;23.30;21.30;;;;;;;;;;5074562;28;20482;-69
2020/12/07 08:22:56;;;;;;;22.20;20.10;;;;;;;;;;5075095;28;20450;-68
2020/12/07 08:25:37;;;;;;;22.80;20.83;;;;;;;;;;5074405;28;20459;-68
2020/12/07 08:28:15;;;;;;;22.07;19.87;;;;;;;;;;5073948;28;20448;-68
2020/12/07 08:30:42;;;;;;;22.20;20.03;;;;;;;;;;5060744;28;20439;-68
2020/12/07 08:33:12;;;;;;;21.60;19.73;;;;;;;;;;5074312;28;20450;-68
2020/12/07 08:35:39;;;;;;;21.70;19.70;;;;;;;;;;5074315;28;20449;-69
2020/12/07 08:38:05;;;;;;;21.27;19.33;;;;;;;;;;5075179;28;20451;-69
2020/12/07 08:40:32;;;;;;;23.57;21.37;;;;;;;;;;5074006;28;20487;-69
2020/12/07 08:42:59;;;;;;;21.90;19.93;;;;;;;;;;5074473;28;20442;-68
2020/12/07 08:45:25;;;;;;;21.13;19.23;;;;;;;;;;5074294;28;20533;-64
2020/12/07 08:47:52;;;;;;;21.60;19.60;;;;;;;;;;5073684;28;20451;-65
2020/12/07 08:50:19;;;;;;;21.63;19.43;;;;;;;;;;5055248;28;20455;-64
2020/12/07 08:52:46;;;;;;;22.80;20.60;;;;;;;;;;5074564;28;20455;-64
2020/12/07 08:55:13;;;;;;;21.30;19.10;;;;;;;;;;5074127;28;20438;-64
2020/12/07 08:57:39;;;;;;;22.63;20.33;;;;;;;;;;5073559;28;20455;-64
2020/12/07 09:00:06;;;;;;;21.53;19.63;;;;;;;;;;5074066;28;20479;-64
2020/12/07 09:02:32;;;;;;;21.73;19.43;;;;;;;;;;5074295;28;20458;-64
2020/12/07 09:04:59;;;;;;;20.53;18.60;;;;;;;;;;5073944;28;20453;-64
2020/12/07 09:07:26;;;;;;;20.67;18.80;;;;;;;;;;5072098;28;20458;-63
2020/12/07 09:09:53;;;;;;;21.73;19.43;;;;;;;;;;5068443;28;20472;-64
2020/12/07 09:12:19;;;;;;;24.10;19.90;;;;;;;;;;5070473;28;20454;-64
2020/12/07 09:14:46;;;;;;;21.47;19.30;;;;;;;;;;5052974;28;20444;-64
2020/12/07 09:17:13;;;;;;;23.10;21.00;;;;;;;;;;5071267;28;20461;-64
2020/12/07 09:19:41;;;;;;;20.83;18.73;;;;;;;;;;5074109;28;20459;-64
2020/12/07 09:22:07;;;;;;;20.17;18.33;;;;;;;;;;5073439;28;20528;-66
2020/12/07 09:24:35;;;;;;;22.27;19.20;;;;;;;;;;5071094;28;20443;-65
2020/12/07 09:27:01;;;;;;;22.13;20.00;;;;;;;;;;5072809;28;20447;-66
2020/12/07 09:29:28;;;;;;;21.73;19.60;;;;;;;;;;5065098;28;20494;-65
2020/12/07 09:31:54;;;;;;;23.50;21.27;;;;;;;;;;5073992;28;20453;-64
2020/12/07 09:34:21;;;;;;;22.63;20.60;;;;;;;;;;5072388;28;20946;-65
2020/12/07 09:36:48;;;;;;;22.20;20.10;;;;;;;;;;5056546;28;20452;-65
2020/12/07 09:39:14;;;;;;;23.97;21.83;;;;;;;;;;5067791;28;20486;-64
2020/12/07 09:41:42;;;;;;;23.70;21.67;;;;;;;;;;5073001;28;20490;-64
2020/12/07 09:44:08;;;;;;;22.50;20.47;;;;;;;;;;5072770;28;20817;-64
2020/12/07 09:46:35;;;;;;;22.60;20.43;;;;;;;;;;5073702;28;20443;-64
2020/12/07 09:49:01;;;;;;;22.20;20.10;;;;;;;;;;5073094;28;21020;-65
2020/12/07 09:51:28;;;;;;;23.80;21.67;;;;;;;;;;5072590;28;20443;-64
2020/12/07 09:53:54;;;;;;;26.63;24.23;;;;;;;;;;5072539;28;20461;-64
2020/12/07 09:56:24;;;;;;;25.10;22.90;;;;;;;;;;5056002;28;20658;-64
2020/12/07 09:58:51;;;;;;;27.90;25.27;;;;;;;;;;5063593;28;20475;-64
2020/12/07 10:01:18;;;;;;;27.57;25.00;;;;;;;;;;5064148;28;20483;-64
2020/12/07 10:03:44;;;;;;;28.03;25.60;;;;;;;;;;5071617;28;20443;-64
2020/12/07 10:06:11;;;;;;;28.90;26.20;;;;;;;;;;5072792;28;20447;-64
2020/12/07 10:08:38;;;;;;;30.30;27.80;;;;;;;;;;5072247;28;20470;-65
2020/12/07 10:11:04;;;;;;;29.43;26.83;;;;;;;;;;5072334;28;20442;-64
2020/12/07 10:13:31;;;;;;;29.60;26.90;;;;;;;;;;5078394;28;20446;-64
2020/12/07 10:15:58;;;;;;;29.07;26.47;;;;;;;;;;5092998;28;20442;-64
2020/12/07 10:18:25;;;;;;;30.60;27.87;;;;;;;;;;5092146;28;20450;-64
2020/12/07 10:20:51;;;;;;;30.87;27.97;;;;;;;;;;5075009;28;20486;-64
2020/12/07 10:23:18;;;;;;;30.80;27.90;;;;;;;;;;5071700;28;20486;-65
2020/12/07 10:25:48;;;;;;;31.83;29.00;;;;;;;;;;5071480;28;20465;-64
2020/12/07 10:28:15;;;;;;;31.83;28.93;;;;;;;;;;5072202;28;20473;-64
2020/12/07 10:30:41;;;;;;;30.60;28.03;;;;;;;;;;5071070;28;20445;-64
2020/12/07 10:33:09;;;;;;;31.13;28.43;;;;;;;;;;5072152;28;20792;-64
2020/12/07 10:35:35;;;;;;;31.17;28.50;;;;;;;;;;5072029;28;20449;-63
2020/12/07 10:38:02;;;;;;;32.37;29.57;;;;;;;;;;5072221;28;20454;-64
2020/12/07 10:40:29;;;;;;;31.77;28.97;;;;;;;;;;5094535;22;20489;-71
2020/12/07 10:42:55;;;;;;;32.03;29.03;;;;;;;;;;5052228;28;20448;-72
2020/12/07 10:45:22;;;;;;;33.23;30.33;;;;;;;;;;5049951;28;20444;-72
2020/12/07 10:47:50;;;;;;;31.97;29.07;;;;;;;;;;5032572;28;20452;-72
2020/12/07 10:50:18;;;;;;;32.23;29.13;;;;;;;;;;5043102;28;21061;-71
2020/12/07 10:52:45;;;;;;;33.20;30.20;;;;;;;;;;5044434;28;20456;-72
2020/12/07 10:55:11;;;;;;;32.30;29.33;;;;;;;;;;5037168;28;20453;-72
2020/12/07 10:57:38;;;;;;;33.23;30.30;;;;;;;;;;5043158;28;20470;-72
2020/12/07 11:00:05;;;;;;;34.33;31.13;;;;;;;;;;5047650;28;20455;-72
2020/12/07 11:02:31;;;;;;;32.17;29.27;;;;;;;;;;5040541;28;20596;-72
2020/12/07 11:04:58;;;;;;;31.67;28.97;;;;;;;;;;5044608;28;20487;-72
2020/12/07 11:07:27;;;;;;;33.83;30.77;;;;;;;;;;5047229;28;20456;-72
2020/12/07 11:09:54;;;;;;;32.20;29.30;;;;;;;;;;5042112;28;20453;-71
2020/12/07 11:12:23;;;;;;;34.60;31.37;;;;;;;;;;5053213;28;20447;-72
2020/12/07 11:14:49;;;;;;;36.10;32.80;;;;;;;;;;5053083;28;20448;-72
2020/12/07 11:17:16;;;;;;;34.20;30.90;;;;;;;;;;5053034;28;20813;-72
2020/12/07 11:19:44;;;;;;;34.23;31.13;;;;;;;;;;5051837;28;20439;-71
2020/12/07 11:22:10;;;;;;;35.77;32.57;;;;;;;;;;5051246;28;20491;-72
2020/12/07 11:24:39;;;;;;;32.17;29.13;;;;;;;;;;5038526;28;20452;-72
2020/12/07 11:27:06;;;;;;;33.20;30.10;;;;;;;;;;5031803;28;20453;-72
2020/12/07 11:29:32;;;;;;;32.23;29.23;;;;;;;;;;5031628;28;20535;-72
2020/12/07 11:31:59;;;;;;;31.80;28.90;;;;;;;;;;5031850;28;20993;-71
2020/12/07 11:34:26;;;;;;;32.40;29.27;;;;;;;;;;5039686;28;20458;-71
2020/12/07 11:36:53;;;;;;;32.87;29.47;;;;;;;;;;5041644;28;20448;-72
2020/12/07 11:39:33;;;;;;;35.87;32.37;;;;;;;;;;5038050;28;20546;-72
2020/12/07 11:42:12;;;;;;;35.43;32.10;;;;;;;;;;5051478;28;20483;-72
2020/12/07 11:44:39;;;;;;;35.70;31.97;;;;;;;;;;5037022;28;20445;-72
2020/12/07 11:47:07;;;;;;;34.47;30.87;;;;;;;;;;5047177;28;21030;-71
2020/12/07 11:49:33;;;;;;;32.77;28.57;;;;;;;;;;5050259;28;20560;-72
2020/12/07 11:52:02;;;;;;;32.43;29.13;;;;;;;;;;5051073;28;20468;-72
2020/12/07 11:54:28;;;;;;;31.40;28.30;;;;;;;;;;5051216;28;20444;-71
2020/12/07 11:56:55;;;;;;;35.40;32.10;;;;;;;;;;5043730;28;20453;-71
2020/12/07 11:59:22;;;;;;;33.73;30.30;;;;;;;;;;5050155;28;20844;-71
2020/12/07 12:01:49;;;;;;;34.10;30.60;;;;;;;;;;5051168;28;20491;-71
2020/12/07 12:04:16;;;;;;;33.77;30.60;;;;;;;;;;5044993;28;20463;-71
2020/12/07 12:06:43;;;;;;;31.90;28.47;;;;;;;;;;5051029;28;20447;-72
2020/12/07 12:09:11;;;;;;;32.17;28.83;;;;;;;;;;5053602;28;20451;-71
2020/12/07 12:11:38;;;;;;;29.43;26.43;;;;;;;;;;5053644;28;20467;-71
2020/12/07 12:14:05;;;;;;;33.90;30.53;;;;;;;;;;5050889;28;20466;-71
2020/12/07 12:16:33;;;;;;;28.83;25.97;;;;;;;;;;5051567;28;20447;-71
2020/12/07 12:19:00;;;;;;;32.13;28.80;;;;;;;;;;5051175;28;20481;-71
2020/12/07 12:21:28;;;;;;;31.17;28.20;;;;;;;;;;5050684;28;20487;-71
2020/12/07 12:23:55;;;;;;;29.47;26.67;;;;;;;;;;5048853;28;20457;-71
2020/12/07 12:26:22;;;;;;;31.87;28.87;;;;;;;;;;5050840;28;20482;-71
2020/12/07 12:28:49;;;;;;;31.73;28.73;;;;;;;;;;5050680;28;20806;-71
2020/12/07 12:31:16;;;;;;;29.43;26.57;;;;;;;;;;5050878;28;20544;-69
2020/12/07 12:33:43;;;;;;;28.77;26.23;;;;;;;;;;5049969;28;20459;-69
2020/12/07 12:36:13;;;;;;;30.30;27.60;;;;;;;;;;5038381;28;20461;-69
2020/12/07 12:38:39;;;;;;;27.10;24.50;;;;;;;;;;5051645;28;20454;-69
2020/12/07 12:41:07;;;;;;;27.80;25.20;;;;;;;;;;5050941;28;20492;-69
2020/12/07 12:43:33;;;;;;;27.03;24.67;;;;;;;;;;5050865;28;20844;-69
2020/12/07 12:46:00;;;;;;;26.23;23.93;;;;;;;;;;5032027;28;20453;-69
2020/12/07 12:48:27;;;;;;;32.90;27.43;;;;;;;;;;5032372;28;20444;-69
2020/12/07 12:50:55;;;;;;;21.23;19.37;;;;;;;;;;5034360;28;20467;-69
2020/12/07 12:53:21;;;;;;;22.47;20.47;;;;;;;;;;5034834;28;20453;-69
2020/12/07 12:55:48;;;;;;;22.80;20.70;;;;;;;;;;5051226;28;20460;-69
2020/12/07 12:58:15;;;;;;;21.50;19.50;;;;;;;;;;5054646;28;20459;-69
2020/12/07 13:00:41;;;;;;;21.93;20.13;;;;;;;;;;5054338;28;20490;-70
2020/12/07 13:03:08;;;;;;;21.23;19.33;;;;;;;;;;5054105;28;20443;-69
2020/12/07 13:05:34;;;;;;;21.50;19.70;;;;;;;;;;5053134;28;21022;-69
2020/12/07 13:08:02;;;;;;;20.20;18.47;;;;;;;;;;5054625;28;20458;-69
2020/12/07 13:10:29;;;;;;;19.90;18.30;;;;;;;;;;5054539;28;20474;-69
2020/12/07 13:12:55;;;;;;;19.07;17.47;;;;;;;;;;5054099;28;20458;-69
2020/12/07 13:15:23;;;;;;;19.93;18.33;;;;;;;;;;5043538;28;20448;-69
2020/12/07 13:17:55;;;;;;;17.30;15.90;;;;;;;;;;5034502;28;20523;-69
2020/12/07 13:20:27;;;;;;;17.70;16.40;;;;;;;;;;5034080;28;20552;-69
2020/12/07 13:23:02;;;;;;;15.40;14.20;;;;;;;;;;5034239;28;20451;-69
2020/12/07 13:25:38;;;;;;;15.00;13.70;;;;;;;;;;5041483;28;20455;-69
2020/12/07 13:28:12;;;;;;;14.83;13.67;;;;;;;;;;5054056;28;20444;-69
2020/12/07 13:30:38;;;;;;;13.43;12.30;;;;;;;;;;5053867;28;20498;-69
2020/12/07 13:33:05;;;;;;;13.23;12.23;;;;;;;;;;5053668;28;20455;-69
2020/12/07 13:35:32;;;;;;;12.90;11.90;;;;;;;;;;5047917;28;20503;-70
2020/12/07 13:37:58;;;;;;;12.60;11.70;;;;;;;;;;5042206;28;20449;-71
2020/12/07 13:40:25;;;;;;;12.67;11.77;;;;;;;;;;5034071;28;20468;-70
2020/12/07 13:42:53;;;;;;;14.07;12.97;;;;;;;;;;5051816;28;20670;-69
2020/12/07 13:45:19;;;;;;;12.43;11.53;;;;;;;;;;5051768;28;20476;-70
2020/12/07 13:47:46;;;;;;;13.23;12.23;;;;;;;;;;5053770;28;20448;-70
2020/12/07 13:50:13;;;;;;;13.20;12.20;;;;;;;;;;5053845;28;20884;-70
2020/12/07 13:52:39;;;;;;;14.17;13.07;;;;;;;;;;5037164;28;20437;-70
2020/12/07 13:55:06;;;;;;;13.80;12.80;;;;;;;;;;5053164;28;20955;-70
2020/12/07 13:57:33;;;;;;;14.27;13.27;;;;;;;;;;5053785;28;20455;-70
2020/12/07 14:00:00;;;;;;;15.20;14.00;;;;;;;;;;5053186;28;20957;-70
2020/12/07 14:02:27;;;;;;;14.07;13.00;;;;;;;;;;5054731;28;20475;-71
2020/12/07 14:04:59;;;;;;;14.43;13.33;;;;;;;;;;5054083;28;20452;-70
2020/12/07 14:07:26;;;;;;;15.70;14.50;;;;;;;;;;5054447;28;20428;-71
2020/12/07 14:09:53;;;;;;;15.07;13.97;;;;;;;;;;5053128;28;20539;-70
2020/12/07 14:12:20;;;;;;;15.13;14.03;;;;;;;;;;5053263;28;20514;-70
2020/12/07 14:14:46;;;;;;;14.90;13.70;;;;;;;;;;5037560;28;20960;-71
2020/12/07 14:17:16;;;;;;;14.57;13.47;;;;;;;;;;5041920;28;20464;-70
2020/12/07 14:19:52;;;;;;;16.03;14.87;;;;;;;;;;5053332;28;20452;-70
2020/12/07 14:22:41;;;;;;;14.97;13.87;;;;;;;;;;5032990;28;20484;-70
2020/12/07 14:25:35;;;;;;;13.63;12.73;;;;;;;;;;5043733;28;20506;-71
2020/12/07 14:39:43;;;;;;;13.30;12.27;;;;;;;;;;5038217;28;20945;-75
2020/12/07 14:42:11;;;;;;;13.83;12.60;;;;;;;;;;5051677;28;20484;-72
2020/12/07 14:44:41;;;;;;;12.83;11.83;;;;;;;;;;5051810;28;20539;-72
2020/12/07 14:47:08;;;;;;;13.37;12.37;;;;;;;;;;5052280;28;21010;-72
2020/12/07 14:49:35;;;;;;;14.17;13.13;;;;;;;;;;5052468;28;20542;-72
2020/12/07 14:52:04;;;;;;;13.70;12.70;;;;;;;;;;5051340;28;20467;-72